KBBW

Details ICAO KBBW
Name BROKEN BOW MUNI
Region United States
Timezone America/Chicago (UTC-5.0)
Plans Departing 0
Arriving 5
Stats Elevation 2,547 ft / 776 m (AMSL)
Location 41.436478° -99.642223°
Runways 1
Magnetic Variation 5.093° E
Sunrise 2018-05-21 11:15:40 UTC / 2018-05-21 06:15:40 Local
Sunset 2018-05-22 01:57:33 UTC / 2018-05-21 20:57:33 Local
Advertisement - Login to hide

Runways

ID Width Length Bearing (true) Bearing (mag) Surface Threshold Offset Overrun Length
14 75 ft / 23 m 4,203 ft / 1,281 m 148.60° 143.51° Concrete 0 ft / 0 m 0 ft / 0 m
32 75 ft / 23 m 4,203 ft / 1,281 m 328.60° 323.51° Concrete 0 ft / 0 m 0 ft / 0 m

Map

Weather


0- 5 10 15 20 25 30 35+ Temperature / ° C

Clouds and Precipitation
Forecast for 2018-05-21 12:00 UTC. Updated 34 minutes ago

Ground ~20,000 ft ~40,000 ft Winds

METAR

KBBW 210916Z AUTO 23003KT 3/4SM BR VV001 08/08 A3008 RMK AO2 T00830078

TAF

Not found

Frequencies

Recorded 120.00 MHz ASOS
Unicom 122.80 MHz CTAF/UNICOM
Warning: Do not use this data for real-world aviation or navigation. No guarantee of current accuracy is given.